sensor_id;sensor_type;location;lat;lon;timestamp;P1;durP1;ratioP1;P2;durP2;ratioP2
8060;SDS011;4073;42.626;25.386;2023-05-10T00:01:24;8.70;;;5.37;;
8060;SDS011;4073;42.626;25.386;2023-05-10T00:03:49;6.57;;;5.40;;
8060;SDS011;4073;42.626;25.386;2023-05-10T00:06:15;8.23;;;5.93;;
8060;SDS011;4073;42.626;25.386;2023-05-10T00:08:40;6.97;;;5.57;;
8060;SDS011;4073;42.626;25.386;2023-05-10T00:11:06;6.03;;;5.40;;
8060;SDS011;4073;42.626;25.386;2023-05-10T00:13:31;5.50;;;5.00;;
8060;SDS011;4073;42.626;25.386;2023-05-10T00:15:57;7.83;;;5.63;;
8060;SDS011;4073;42.626;25.386;2023-05-10T00:18:22;6.57;;;5.53;;
8060;SDS011;4073;42.626;25.386;2023-05-10T00:20:48;7.93;;;5.30;;
8060;SDS011;4073;42.626;25.386;2023-05-10T00:23:13;7.37;;;5.87;;
8060;SDS011;4073;42.626;25.386;2023-05-10T00:25:39;8.17;;;5.43;;
8060;SDS011;4073;42.626;25.386;2023-05-10T00:28:05;7.93;;;5.97;;
8060;SDS011;4073;42.626;25.386;2023-05-10T00:30:30;6.33;;;5.30;;
8060;SDS011;4073;42.626;25.386;2023-05-10T00:32:55;6.57;;;5.87;;
8060;SDS011;4073;42.626;25.386;2023-05-10T00:35:21;8.17;;;5.87;;
8060;SDS011;4073;42.626;25.386;2023-05-10T00:37:47;7.07;;;5.13;;
8060;SDS011;4073;42.626;25.386;2023-05-10T00:40:12;6.37;;;5.77;;
8060;SDS011;4073;42.626;25.386;2023-05-10T00:42:38;7.37;;;6.30;;
8060;SDS011;4073;42.626;25.386;2023-05-10T00:45:03;6.43;;;5.43;;
8060;SDS011;4073;42.626;25.386;2023-05-10T00:47:29;8.47;;;5.30;;
8060;SDS011;4073;42.626;25.386;2023-05-10T00:49:55;6.70;;;5.60;;
8060;SDS011;4073;42.626;25.386;2023-05-10T00:52:21;8.80;;;6.10;;
8060;SDS011;4073;42.626;25.386;2023-05-10T00:54:49;11.70;;;5.97;;
8060;SDS011;4073;42.626;25.386;2023-05-10T00:57:16;8.80;;;5.43;;
8060;SDS011;4073;42.626;25.386;2023-05-10T00:59:42;8.97;;;5.77;;
8060;SDS011;4073;42.626;25.386;2023-05-10T01:02:07;9.10;;;5.70;;
8060;SDS011;4073;42.626;25.386;2023-05-10T01:04:33;8.47;;;6.10;;
8060;SDS011;4073;42.626;25.386;2023-05-10T01:07:00;9.60;;;5.90;;
8060;SDS011;4073;42.626;25.386;2023-05-10T01:09:26;8.83;;;5.20;;
8060;SDS011;4073;42.626;25.386;2023-05-10T01:11:53;8.40;;;6.87;;
8060;SDS011;4073;42.626;25.386;2023-05-10T01:14:20;7.53;;;6.23;;
8060;SDS011;4073;42.626;25.386;2023-05-10T01:16:46;11.33;;;6.47;;
8060;SDS011;4073;42.626;25.386;2023-05-10T01:27:51;6.80;;;5.50;;
8060;SDS011;4073;42.626;25.386;2023-05-10T01:30:32;10.80;;;5.40;;
8060;SDS011;4073;42.626;25.386;2023-05-10T01:33:19;6.07;;;4.73;;
8060;SDS011;4073;42.626;25.386;2023-05-10T01:35:51;7.13;;;5.57;;
8060;SDS011;4073;42.626;25.386;2023-05-10T01:38:44;8.00;;;5.23;;
8060;SDS011;4073;42.626;25.386;2023-05-10T01:41:19;8.97;;;6.07;;
8060;SDS011;4073;42.626;25.386;2023-05-10T01:46:24;7.63;;;5.00;;
8060;SDS011;4073;42.626;25.386;2023-05-10T01:48:58;8.30;;;6.20;;
8060;SDS011;4073;42.626;25.386;2023-05-10T01:51:29;9.73;;;5.63;;
8060;SDS011;4073;42.626;25.386;2023-05-10T01:54:02;6.47;;;5.63;;
8060;SDS011;4073;42.626;25.386;2023-05-10T01:56:30;8.43;;;5.53;;
8060;SDS011;4073;42.626;25.386;2023-05-10T01:58:58;9.90;;;6.30;;
8060;SDS011;4073;42.626;25.386;2023-05-10T02:01:26;6.73;;;5.37;;
8060;SDS011;4073;42.626;25.386;2023-05-10T02:03:52;6.90;;;5.57;;
8060;SDS011;4073;42.626;25.386;2023-05-10T02:06:20;6.47;;;5.37;;
8060;SDS011;4073;42.626;25.386;2023-05-10T02:08:47;6.30;;;5.43;;
8060;SDS011;4073;42.626;25.386;2023-05-10T02:11:15;6.70;;;5.53;;
8060;SDS011;4073;42.626;25.386;2023-05-10T02:13:43;5.93;;;5.00;;
8060;SDS011;4073;42.626;25.386;2023-05-10T02:16:12;6.10;;;5.50;;
8060;SDS011;4073;42.626;25.386;2023-05-10T02:18:39;5.37;;;4.87;;
8060;SDS011;4073;42.626;25.386;2023-05-10T02:21:06;8.93;;;5.27;;
8060;SDS011;4073;42.626;25.386;2023-05-10T02:23:33;6.13;;;5.23;;
8060;SDS011;4073;42.626;25.386;2023-05-10T02:26:00;6.07;;;5.00;;
8060;SDS011;4073;42.626;25.386;2023-05-10T02:28:27;8.30;;;5.67;;
8060;SDS011;4073;42.626;25.386;2023-05-10T02:30:54;9.10;;;5.50;;
8060;SDS011;4073;42.626;25.386;2023-05-10T02:33:20;7.50;;;5.43;;
8060;SDS011;4073;42.626;25.386;2023-05-10T02:35:47;5.70;;;5.20;;
8060;SDS011;4073;42.626;25.386;2023-05-10T02:38:14;5.70;;;5.13;;
8060;SDS011;4073;42.626;25.386;2023-05-10T02:40:41;9.27;;;5.60;;
8060;SDS011;4073;42.626;25.386;2023-05-10T02:43:09;7.23;;;5.40;;
8060;SDS011;4073;42.626;25.386;2023-05-10T02:45:38;7.63;;;5.80;;
8060;SDS011;4073;42.626;25.386;2023-05-10T02:48:05;7.50;;;5.53;;
8060;SDS011;4073;42.626;25.386;2023-05-10T02:50:31;7.97;;;5.77;;
8060;SDS011;4073;42.626;25.386;2023-05-10T02:53:03;8.10;;;5.80;;
8060;SDS011;4073;42.626;25.386;2023-05-10T02:55:38;6.53;;;5.63;;
8060;SDS011;4073;42.626;25.386;2023-05-10T02:58:05;9.13;;;5.60;;
8060;SDS011;4073;42.626;25.386;2023-05-10T03:00:31;7.13;;;5.63;;
8060;SDS011;4073;42.626;25.386;2023-05-10T03:02:57;6.93;;;6.23;;
8060;SDS011;4073;42.626;25.386;2023-05-10T03:05:22;6.20;;;5.20;;
8060;SDS011;4073;42.626;25.386;2023-05-10T03:07:48;10.57;;;5.63;;
8060;SDS011;4073;42.626;25.386;2023-05-10T03:10:13;7.93;;;5.77;;
8060;SDS011;4073;42.626;25.386;2023-05-10T03:18:15;6.87;;;5.97;;
8060;SDS011;4073;42.626;25.386;2023-05-10T03:21:04;7.73;;;5.97;;
8060;SDS011;4073;42.626;25.386;2023-05-10T03:26:06;6.90;;;5.87;;
8060;SDS011;4073;42.626;25.386;2023-05-10T03:28:33;6.53;;;4.83;;
8060;SDS011;4073;42.626;25.386;2023-05-10T03:31:00;7.33;;;4.97;;
8060;SDS011;4073;42.626;25.386;2023-05-10T03:33:27;5.23;;;4.73;;
8060;SDS011;4073;42.626;25.386;2023-05-10T03:35:53;6.13;;;5.47;;
8060;SDS011;4073;42.626;25.386;2023-05-10T03:38:18;7.77;;;5.07;;
8060;SDS011;4073;42.626;25.386;2023-05-10T03:40:44;7.80;;;5.13;;
8060;SDS011;4073;42.626;25.386;2023-05-10T03:43:09;7.50;;;5.90;;
8060;SDS011;4073;42.626;25.386;2023-05-10T03:45:34;5.63;;;5.17;;
8060;SDS011;4073;42.626;25.386;2023-05-10T03:48:00;8.17;;;5.67;;
8060;SDS011;4073;42.626;25.386;2023-05-10T03:50:26;6.37;;;5.47;;
8060;SDS011;4073;42.626;25.386;2023-05-10T03:52:51;8.53;;;6.40;;
8060;SDS011;4073;42.626;25.386;2023-05-10T03:55:17;5.83;;;5.20;;
8060;SDS011;4073;42.626;25.386;2023-05-10T03:57:43;8.27;;;6.37;;
8060;SDS011;4073;42.626;25.386;2023-05-10T04:00:08;7.53;;;5.03;;
8060;SDS011;4073;42.626;25.386;2023-05-10T04:02:34;6.60;;;5.03;;
8060;SDS011;4073;42.626;25.386;2023-05-10T04:05:00;6.47;;;5.23;;
8060;SDS011;4073;42.626;25.386;2023-05-10T04:07:26;6.77;;;5.33;;
8060;SDS011;4073;42.626;25.386;2023-05-10T04:09:51;7.70;;;5.50;;
8060;SDS011;4073;42.626;25.386;2023-05-10T04:12:17;7.67;;;6.63;;
8060;SDS011;4073;42.626;25.386;2023-05-10T04:14:42;7.60;;;6.17;;
8060;SDS011;4073;42.626;25.386;2023-05-10T04:17:08;8.77;;;5.80;;
8060;SDS011;4073;42.626;25.386;2023-05-10T04:19:33;7.10;;;5.37;;
8060;SDS011;4073;42.626;25.386;2023-05-10T04:21:58;9.27;;;5.50;;
8060;SDS011;4073;42.626;25.386;2023-05-10T04:24:24;5.93;;;5.23;;
8060;SDS011;4073;42.626;25.386;2023-05-10T04:26:50;9.37;;;5.97;;
8060;SDS011;4073;42.626;25.386;2023-05-10T04:29:16;7.27;;;6.57;;
8060;SDS011;4073;42.626;25.386;2023-05-10T04:31:41;7.07;;;5.80;;
8060;SDS011;4073;42.626;25.386;2023-05-10T04:34:07;6.63;;;5.03;;
8060;SDS011;4073;42.626;25.386;2023-05-10T04:36:32;8.67;;;6.10;;
8060;SDS011;4073;42.626;25.386;2023-05-10T04:39:00;6.87;;;5.70;;
8060;SDS011;4073;42.626;25.386;2023-05-10T04:41:27;8.10;;;6.77;;
8060;SDS011;4073;42.626;25.386;2023-05-10T04:43:53;8.63;;;5.77;;
8060;SDS011;4073;42.626;25.386;2023-05-10T04:46:18;7.03;;;6.00;;
8060;SDS011;4073;42.626;25.386;2023-05-10T04:48:44;7.80;;;5.60;;
8060;SDS011;4073;42.626;25.386;2023-05-10T04:51:09;10.40;;;6.30;;
8060;SDS011;4073;42.626;25.386;2023-05-10T04:53:34;7.53;;;6.23;;
8060;SDS011;4073;42.626;25.386;2023-05-10T04:56:00;7.30;;;5.53;;
8060;SDS011;4073;42.626;25.386;2023-05-10T04:58:26;8.90;;;5.77;;
8060;SDS011;4073;42.626;25.386;2023-05-10T05:00:51;7.17;;;5.70;;
8060;SDS011;4073;42.626;25.386;2023-05-10T05:03:17;6.87;;;5.60;;
8060;SDS011;4073;42.626;25.386;2023-05-10T05:05:43;9.60;;;5.80;;
8060;SDS011;4073;42.626;25.386;2023-05-10T05:08:09;6.37;;;5.43;;
8060;SDS011;4073;42.626;25.386;2023-05-10T05:10:35;8.00;;;5.50;;
8060;SDS011;4073;42.626;25.386;2023-05-10T05:13:00;7.40;;;6.20;;
8060;SDS011;4073;42.626;25.386;2023-05-10T05:15:25;7.63;;;5.30;;
8060;SDS011;4073;42.626;25.386;2023-05-10T05:17:51;6.80;;;5.67;;
8060;SDS011;4073;42.626;25.386;2023-05-10T05:20:17;9.07;;;5.67;;
8060;SDS011;4073;42.626;25.386;2023-05-10T05:22:44;6.80;;;6.10;;
8060;SDS011;4073;42.626;25.386;2023-05-10T05:25:09;9.20;;;4.93;;
8060;SDS011;4073;42.626;25.386;2023-05-10T05:27:36;9.03;;;5.30;;
8060;SDS011;4073;42.626;25.386;2023-05-10T05:30:02;9.87;;;6.07;;
8060;SDS011;4073;42.626;25.386;2023-05-10T05:32:28;8.33;;;6.23;;
8060;SDS011;4073;42.626;25.386;2023-05-10T05:34:53;8.70;;;5.50;;
8060;SDS011;4073;42.626;25.386;2023-05-10T05:37:19;7.33;;;6.00;;
8060;SDS011;4073;42.626;25.386;2023-05-10T05:39:46;7.30;;;5.30;;
8060;SDS011;4073;42.626;25.386;2023-05-10T05:42:12;6.87;;;5.53;;
8060;SDS011;4073;42.626;25.386;2023-05-10T05:44:38;7.03;;;5.47;;
8060;SDS011;4073;42.626;25.386;2023-05-10T05:47:04;7.00;;;5.23;;
8060;SDS011;4073;42.626;25.386;2023-05-10T05:49:31;7.73;;;5.53;;
8060;SDS011;4073;42.626;25.386;2023-05-10T05:52:03;9.23;;;5.23;;
8060;SDS011;4073;42.626;25.386;2023-05-10T05:54:29;6.00;;;5.40;;
8060;SDS011;4073;42.626;25.386;2023-05-10T05:56:59;6.33;;;5.73;;
8060;SDS011;4073;42.626;25.386;2023-05-10T05:59:25;6.90;;;4.97;;
8060;SDS011;4073;42.626;25.386;2023-05-10T06:01:51;7.07;;;5.40;;
8060;SDS011;4073;42.626;25.386;2023-05-10T06:04:17;7.23;;;6.27;;
8060;SDS011;4073;42.626;25.386;2023-05-10T06:06:42;9.83;;;5.50;;
8060;SDS011;4073;42.626;25.386;2023-05-10T06:09:08;6.77;;;5.83;;
8060;SDS011;4073;42.626;25.386;2023-05-10T06:11:34;8.00;;;5.57;;
8060;SDS011;4073;42.626;25.386;2023-05-10T06:14:00;7.57;;;5.90;;
8060;SDS011;4073;42.626;25.386;2023-05-10T06:16:26;8.57;;;5.77;;
8060;SDS011;4073;42.626;25.386;2023-05-10T06:18:52;11.63;;;5.73;;
8060;SDS011;4073;42.626;25.386;2023-05-10T06:21:18;7.43;;;5.97;;
8060;SDS011;4073;42.626;25.386;2023-05-10T06:23:43;9.10;;;5.23;;
8060;SDS011;4073;42.626;25.386;2023-05-10T06:26:09;13.07;;;5.87;;
8060;SDS011;4073;42.626;25.386;2023-05-10T06:28:35;7.93;;;5.50;;
8060;SDS011;4073;42.626;25.386;2023-05-10T06:31:02;8.90;;;6.00;;
8060;SDS011;4073;42.626;25.386;2023-05-10T06:33:28;5.87;;;5.23;;
8060;SDS011;4073;42.626;25.386;2023-05-10T06:35:53;8.80;;;6.30;;
8060;SDS011;4073;42.626;25.386;2023-05-10T06:38:19;9.10;;;6.07;;
8060;SDS011;4073;42.626;25.386;2023-05-10T06:40:44;6.63;;;5.93;;
8060;SDS011;4073;42.626;25.386;2023-05-10T06:43:10;7.63;;;6.10;;
8060;SDS011;4073;42.626;25.386;2023-05-10T06:45:35;8.03;;;6.20;;
8060;SDS011;4073;42.626;25.386;2023-05-10T06:48:01;5.83;;;5.30;;
8060;SDS011;4073;42.626;25.386;2023-05-10T06:50:26;8.17;;;6.03;;
8060;SDS011;4073;42.626;25.386;2023-05-10T06:52:52;8.63;;;7.17;;
8060;SDS011;4073;42.626;25.386;2023-05-10T06:55:17;10.43;;;5.93;;
8060;SDS011;4073;42.626;25.386;2023-05-10T06:57:43;9.07;;;5.10;;
8060;SDS011;4073;42.626;25.386;2023-05-10T07:00:08;10.30;;;6.17;;
8060;SDS011;4073;42.626;25.386;2023-05-10T07:02:35;5.80;;;4.90;;
8060;SDS011;4073;42.626;25.386;2023-05-10T07:05:00;5.83;;;4.60;;
8060;SDS011;4073;42.626;25.386;2023-05-10T07:07:27;5.33;;;4.37;;
8060;SDS011;4073;42.626;25.386;2023-05-10T07:09:52;4.83;;;4.43;;
8060;SDS011;4073;42.626;25.386;2023-05-10T07:12:18;7.23;;;3.80;;
8060;SDS011;4073;42.626;25.386;2023-05-10T07:14:43;4.77;;;4.27;;
8060;SDS011;4073;42.626;25.386;2023-05-10T07:17:09;4.90;;;4.50;;
8060;SDS011;4073;42.626;25.386;2023-05-10T07:19:34;4.90;;;4.43;;
8060;SDS011;4073;42.626;25.386;2023-05-10T07:22:00;4.60;;;4.03;;
8060;SDS011;4073;42.626;25.386;2023-05-10T07:24:26;5.23;;;4.80;;
8060;SDS011;4073;42.626;25.386;2023-05-10T07:26:52;6.13;;;3.90;;
8060;SDS011;4073;42.626;25.386;2023-05-10T07:29:17;6.70;;;4.07;;
8060;SDS011;4073;42.626;25.386;2023-05-10T07:31:43;6.17;;;4.40;;
8060;SDS011;4073;42.626;25.386;2023-05-10T07:34:08;4.87;;;4.03;;
8060;SDS011;4073;42.626;25.386;2023-05-10T07:36:34;5.53;;;4.23;;
8060;SDS011;4073;42.626;25.386;2023-05-10T07:39:00;7.43;;;4.13;;
8060;SDS011;4073;42.626;25.386;2023-05-10T07:41:25;5.40;;;4.27;;
8060;SDS011;4073;42.626;25.386;2023-05-10T07:43:51;5.33;;;4.77;;
8060;SDS011;4073;42.626;25.386;2023-05-10T07:46:16;5.53;;;4.50;;
8060;SDS011;4073;42.626;25.386;2023-05-10T07:48:41;4.80;;;4.30;;
8060;SDS011;4073;42.626;25.386;2023-05-10T07:51:07;5.97;;;5.07;;
8060;SDS011;4073;42.626;25.386;2023-05-10T07:53:34;5.27;;;4.30;;
8060;SDS011;4073;42.626;25.386;2023-05-10T07:56:19;5.30;;;4.33;;
8060;SDS011;4073;42.626;25.386;2023-05-10T07:58:45;7.07;;;4.77;;
8060;SDS011;4073;42.626;25.386;2023-05-10T08:01:10;4.60;;;3.87;;
8060;SDS011;4073;42.626;25.386;2023-05-10T08:03:36;6.07;;;4.07;;
8060;SDS011;4073;42.626;25.386;2023-05-10T08:06:01;4.53;;;4.13;;
8060;SDS011;4073;42.626;25.386;2023-05-10T08:08:27;5.20;;;4.30;;
8060;SDS011;4073;42.626;25.386;2023-05-10T08:10:52;3.90;;;3.50;;
8060;SDS011;4073;42.626;25.386;2023-05-10T08:13:18;5.60;;;3.70;;
8060;SDS011;4073;42.626;25.386;2023-05-10T08:15:43;4.70;;;4.17;;
8060;SDS011;4073;42.626;25.386;2023-05-10T08:18:08;5.83;;;4.30;;
8060;SDS011;4073;42.626;25.386;2023-05-10T08:20:34;9.43;;;4.70;;
8060;SDS011;4073;42.626;25.386;2023-05-10T08:22:59;4.77;;;4.30;;
8060;SDS011;4073;42.626;25.386;2023-05-10T08:25:26;4.57;;;3.90;;
8060;SDS011;4073;42.626;25.386;2023-05-10T08:27:52;5.57;;;4.13;;
8060;SDS011;4073;42.626;25.386;2023-05-10T08:30:17;4.40;;;4.00;;
8060;SDS011;4073;42.626;25.386;2023-05-10T08:32:43;4.07;;;3.33;;
8060;SDS011;4073;42.626;25.386;2023-05-10T08:35:08;4.57;;;3.57;;
8060;SDS011;4073;42.626;25.386;2023-05-10T08:37:33;5.50;;;3.80;;
8060;SDS011;4073;42.626;25.386;2023-05-10T08:39:59;5.60;;;4.50;;
8060;SDS011;4073;42.626;25.386;2023-05-10T08:42:25;6.40;;;4.53;;
8060;SDS011;4073;42.626;25.386;2023-05-10T08:44:53;4.07;;;3.50;;
8060;SDS011;4073;42.626;25.386;2023-05-10T08:47:20;4.13;;;3.73;;
8060;SDS011;4073;42.626;25.386;2023-05-10T08:49:47;6.70;;;3.40;;
8060;SDS011;4073;42.626;25.386;2023-05-10T08:52:16;3.73;;;3.43;;
8060;SDS011;4073;42.626;25.386;2023-05-10T08:54:43;4.13;;;3.70;;
8060;SDS011;4073;42.626;25.386;2023-05-10T08:57:09;3.67;;;3.37;;
8060;SDS011;4073;42.626;25.386;2023-05-10T08:59:35;4.50;;;3.20;;
8060;SDS011;4073;42.626;25.386;2023-05-10T09:02:03;3.10;;;2.80;;
8060;SDS011;4073;42.626;25.386;2023-05-10T09:04:30;4.73;;;3.27;;
8060;SDS011;4073;42.626;25.386;2023-05-10T09:06:56;3.13;;;2.77;;
8060;SDS011;4073;42.626;25.386;2023-05-10T09:09:22;3.53;;;3.23;;
8060;SDS011;4073;42.626;25.386;2023-05-10T09:11:50;5.83;;;3.17;;
8060;SDS011;4073;42.626;25.386;2023-05-10T09:14:16;5.40;;;4.37;;
8060;SDS011;4073;42.626;25.386;2023-05-10T09:16:43;4.53;;;3.43;;
8060;SDS011;4073;42.626;25.386;2023-05-10T09:19:09;3.90;;;2.87;;
8060;SDS011;4073;42.626;25.386;2023-05-10T09:21:35;3.53;;;2.97;;
8060;SDS011;4073;42.626;25.386;2023-05-10T09:24:08;3.07;;;2.77;;
8060;SDS011;4073;42.626;25.386;2023-05-10T09:26:34;3.60;;;3.07;;
8060;SDS011;4073;42.626;25.386;2023-05-10T09:29:00;3.47;;;3.10;;
8060;SDS011;4073;42.626;25.386;2023-05-10T09:34:22;5.63;;;3.90;;
8060;SDS011;4073;42.626;25.386;2023-05-10T09:36:55;4.10;;;3.13;;
8060;SDS011;4073;42.626;25.386;2023-05-10T09:39:31;3.90;;;3.60;;
8060;SDS011;4073;42.626;25.386;2023-05-10T09:41:58;3.30;;;3.00;;
8060;SDS011;4073;42.626;25.386;2023-05-10T09:44:26;4.97;;;3.80;;
8060;SDS011;4073;42.626;25.386;2023-05-10T09:46:51;4.10;;;2.90;;
8060;SDS011;4073;42.626;25.386;2023-05-10T09:49:18;4.77;;;3.53;;
8060;SDS011;4073;42.626;25.386;2023-05-10T09:51:44;5.40;;;3.47;;
8060;SDS011;4073;42.626;25.386;2023-05-10T09:54:14;3.60;;;3.23;;
8060;SDS011;4073;42.626;25.386;2023-05-10T09:56:41;4.70;;;3.77;;
8060;SDS011;4073;42.626;25.386;2023-05-10T09:59:09;5.13;;;3.80;;
8060;SDS011;4073;42.626;25.386;2023-05-10T10:01:36;3.30;;;3.00;;
8060;SDS011;4073;42.626;25.386;2023-05-10T10:04:05;2.80;;;2.60;;
8060;SDS011;4073;42.626;25.386;2023-05-10T10:06:39;5.50;;;3.40;;
8060;SDS011;4073;42.626;25.386;2023-05-10T10:09:05;5.17;;;3.30;;
8060;SDS011;4073;42.626;25.386;2023-05-10T10:11:31;3.00;;;2.80;;
8060;SDS011;4073;42.626;25.386;2023-05-10T10:13:58;3.67;;;3.37;;
8060;SDS011;4073;42.626;25.386;2023-05-10T10:16:24;4.33;;;3.83;;
8060;SDS011;4073;42.626;25.386;2023-05-10T10:18:51;3.70;;;3.37;;
8060;SDS011;4073;42.626;25.386;2023-05-10T10:21:17;3.77;;;3.43;;
8060;SDS011;4073;42.626;25.386;2023-05-10T10:23:43;4.07;;;3.37;;
8060;SDS011;4073;42.626;25.386;2023-05-10T10:26:09;3.00;;;2.70;;
8060;SDS011;4073;42.626;25.386;2023-05-10T10:34:22;2.97;;;2.63;;
8060;SDS011;4073;42.626;25.386;2023-05-10T10:36:52;3.17;;;2.87;;
8060;SDS011;4073;42.626;25.386;2023-05-10T10:39:18;6.00;;;2.90;;
8060;SDS011;4073;42.626;25.386;2023-05-10T10:41:52;4.93;;;2.93;;
8060;SDS011;4073;42.626;25.386;2023-05-10T10:44:22;5.00;;;2.80;;
8060;SDS011;4073;42.626;25.386;2023-05-10T10:49:37;3.97;;;3.37;;
8060;SDS011;4073;42.626;25.386;2023-05-10T10:54:53;7.53;;;3.77;;
8060;SDS011;4073;42.626;25.386;2023-05-10T10:57:31;3.50;;;3.20;;
8060;SDS011;4073;42.626;25.386;2023-05-10T11:00:19;3.37;;;3.07;;
8060;SDS011;4073;42.626;25.386;2023-05-10T11:02:58;4.97;;;3.23;;
8060;SDS011;4073;42.626;25.386;2023-05-10T11:05:38;5.33;;;3.67;;
8060;SDS011;4073;42.626;25.386;2023-05-10T11:08:08;3.73;;;3.30;;
8060;SDS011;4073;42.626;25.386;2023-05-10T11:10:35;4.17;;;3.10;;
8060;SDS011;4073;42.626;25.386;2023-05-10T11:13:08;3.23;;;2.93;;
8060;SDS011;4073;42.626;25.386;2023-05-10T11:15:38;4.33;;;3.23;;
8060;SDS011;4073;42.626;25.386;2023-05-10T11:18:17;4.53;;;2.80;;
8060;SDS011;4073;42.626;25.386;2023-05-10T11:20:43;5.60;;;2.90;;
8060;SDS011;4073;42.626;25.386;2023-05-10T11:23:12;3.27;;;2.97;;
8060;SDS011;4073;42.626;25.386;2023-05-10T11:25:44;4.10;;;2.73;;
8060;SDS011;4073;42.626;25.386;2023-05-10T11:28:11;5.07;;;3.10;;
8060;SDS011;4073;42.626;25.386;2023-05-10T11:30:40;3.37;;;2.70;;
8060;SDS011;4073;42.626;25.386;2023-05-10T11:33:07;4.43;;;3.00;;
8060;SDS011;4073;42.626;25.386;2023-05-10T11:35:37;4.77;;;3.10;;
8060;SDS011;4073;42.626;25.386;2023-05-10T11:38:07;2.80;;;2.27;;
8060;SDS011;4073;42.626;25.386;2023-05-10T11:40:34;2.67;;;2.30;;
8060;SDS011;4073;42.626;25.386;2023-05-10T11:43:01;3.30;;;2.90;;
8060;SDS011;4073;42.626;25.386;2023-05-10T11:45:27;2.87;;;2.67;;
8060;SDS011;4073;42.626;25.386;2023-05-10T11:47:55;6.07;;;2.83;;
8060;SDS011;4073;42.626;25.386;2023-05-10T11:50:20;2.90;;;2.60;;
8060;SDS011;4073;42.626;25.386;2023-05-10T11:52:50;4.13;;;2.87;;
8060;SDS011;4073;42.626;25.386;2023-05-10T11:55:16;5.30;;;2.90;;
8060;SDS011;4073;42.626;25.386;2023-05-10T11:57:42;6.90;;;3.10;;
8060;SDS011;4073;42.626;25.386;2023-05-10T12:00:10;4.33;;;3.13;;
8060;SDS011;4073;42.626;25.386;2023-05-10T12:02:36;6.80;;;4.07;;
8060;SDS011;4073;42.626;25.386;2023-05-10T12:05:01;4.20;;;3.77;;
8060;SDS011;4073;42.626;25.386;2023-05-10T12:07:28;5.27;;;3.80;;
8060;SDS011;4073;42.626;25.386;2023-05-10T12:12:43;3.13;;;2.77;;
8060;SDS011;4073;42.626;25.386;2023-05-10T12:15:17;4.47;;;2.80;;
8060;SDS011;4073;42.626;25.386;2023-05-10T12:17:45;5.87;;;5.27;;
8060;SDS011;4073;42.626;25.386;2023-05-10T12:22:40;2.97;;;2.67;;
8060;SDS011;4073;42.626;25.386;2023-05-10T12:25:09;2.87;;;2.63;;
8060;SDS011;4073;42.626;25.386;2023-05-10T12:27:35;3.70;;;3.07;;
8060;SDS011;4073;42.626;25.386;2023-05-10T12:30:01;3.20;;;2.63;;
8060;SDS011;4073;42.626;25.386;2023-05-10T12:32:43;4.07;;;3.50;;
8060;SDS011;4073;42.626;25.386;2023-05-10T12:35:09;6.83;;;3.10;;
8060;SDS011;4073;42.626;25.386;2023-05-10T12:37:35;3.10;;;2.43;;
8060;SDS011;4073;42.626;25.386;2023-05-10T12:40:05;2.70;;;2.40;;
8060;SDS011;4073;42.626;25.386;2023-05-10T12:42:31;2.30;;;2.10;;
8060;SDS011;4073;42.626;25.386;2023-05-10T12:44:57;4.07;;;2.50;;
8060;SDS011;4073;42.626;25.386;2023-05-10T12:47:22;2.77;;;2.40;;
8060;SDS011;4073;42.626;25.386;2023-05-10T12:49:48;3.00;;;2.40;;
8060;SDS011;4073;42.626;25.386;2023-05-10T12:52:13;2.83;;;2.53;;
8060;SDS011;4073;42.626;25.386;2023-05-10T12:54:39;3.53;;;2.03;;
8060;SDS011;4073;42.626;25.386;2023-05-10T12:57:04;2.37;;;2.17;;
8060;SDS011;4073;42.626;25.386;2023-05-10T12:59:30;2.00;;;1.80;;
8060;SDS011;4073;42.626;25.386;2023-05-10T13:01:56;5.40;;;2.03;;
8060;SDS011;4073;42.626;25.386;2023-05-10T13:04:22;3.30;;;2.10;;
8060;SDS011;4073;42.626;25.386;2023-05-10T13:06:48;3.60;;;2.00;;
8060;SDS011;4073;42.626;25.386;2023-05-10T13:09:13;3.40;;;2.50;;
8060;SDS011;4073;42.626;25.386;2023-05-10T13:11:39;2.83;;;2.20;;
8060;SDS011;4073;42.626;25.386;2023-05-10T13:14:04;4.13;;;2.70;;
8060;SDS011;4073;42.626;25.386;2023-05-10T13:16:30;3.53;;;2.83;;
8060;SDS011;4073;42.626;25.386;2023-05-10T13:18:56;3.37;;;2.53;;
8060;SDS011;4073;42.626;25.386;2023-05-10T13:21:21;2.40;;;2.20;;
8060;SDS011;4073;42.626;25.386;2023-05-10T13:23:47;2.43;;;2.20;;
8060;SDS011;4073;42.626;25.386;2023-05-10T13:26:12;2.40;;;2.00;;
8060;SDS011;4073;42.626;25.386;2023-05-10T13:28:38;3.40;;;2.30;;
8060;SDS011;4073;42.626;25.386;2023-05-10T13:31:03;2.93;;;2.70;;
8060;SDS011;4073;42.626;25.386;2023-05-10T13:33:29;2.13;;;1.93;;
8060;SDS011;4073;42.626;25.386;2023-05-10T13:35:55;2.57;;;2.37;;
8060;SDS011;4073;42.626;25.386;2023-05-10T13:38:20;3.27;;;2.23;;
8060;SDS011;4073;42.626;25.386;2023-05-10T13:40:46;2.90;;;2.23;;
8060;SDS011;4073;42.626;25.386;2023-05-10T13:43:11;2.63;;;2.37;;
8060;SDS011;4073;42.626;25.386;2023-05-10T13:45:37;2.67;;;2.47;;
8060;SDS011;4073;42.626;25.386;2023-05-10T13:48:02;3.73;;;2.70;;
8060;SDS011;4073;42.626;25.386;2023-05-10T13:50:28;1.90;;;1.80;;
8060;SDS011;4073;42.626;25.386;2023-05-10T13:52:53;4.87;;;2.50;;
8060;SDS011;4073;42.626;25.386;2023-05-10T13:55:19;2.40;;;2.23;;
8060;SDS011;4073;42.626;25.386;2023-05-10T13:57:44;5.07;;;2.20;;
8060;SDS011;4073;42.626;25.386;2023-05-10T14:00:10;3.63;;;2.20;;
8060;SDS011;4073;42.626;25.386;2023-05-10T14:02:36;4.90;;;2.20;;
8060;SDS011;4073;42.626;25.386;2023-05-10T14:05:02;3.40;;;3.10;;
8060;SDS011;4073;42.626;25.386;2023-05-10T14:07:28;3.03;;;2.13;;
8060;SDS011;4073;42.626;25.386;2023-05-10T14:09:53;2.53;;;2.23;;
8060;SDS011;4073;42.626;25.386;2023-05-10T14:12:18;2.50;;;2.20;;
8060;SDS011;4073;42.626;25.386;2023-05-10T14:14:44;2.37;;;2.17;;
8060;SDS011;4073;42.626;25.386;2023-05-10T14:17:10;2.60;;;2.40;;
8060;SDS011;4073;42.626;25.386;2023-05-10T14:19:35;2.67;;;2.47;;
8060;SDS011;4073;42.626;25.386;2023-05-10T14:22:01;2.77;;;2.30;;
8060;SDS011;4073;42.626;25.386;2023-05-10T14:24:26;4.17;;;2.50;;
8060;SDS011;4073;42.626;25.386;2023-05-10T14:26:51;2.70;;;2.27;;
8060;SDS011;4073;42.626;25.386;2023-05-10T14:29:19;3.10;;;2.33;;
8060;SDS011;4073;42.626;25.386;2023-05-10T14:31:45;2.83;;;2.53;;
8060;SDS011;4073;42.626;25.386;2023-05-10T14:34:11;3.57;;;2.83;;
8060;SDS011;4073;42.626;25.386;2023-05-10T14:36:36;2.87;;;2.67;;
8060;SDS011;4073;42.626;25.386;2023-05-10T14:39:02;2.90;;;2.57;;
8060;SDS011;4073;42.626;25.386;2023-05-10T14:41:27;8.47;;;4.33;;
8060;SDS011;4073;42.626;25.386;2023-05-10T14:43:53;4.43;;;4.03;;
8060;SDS011;4073;42.626;25.386;2023-05-10T14:46:18;2.77;;;2.57;;
8060;SDS011;4073;42.626;25.386;2023-05-10T14:48:44;3.83;;;2.70;;
8060;SDS011;4073;42.626;25.386;2023-05-10T14:51:10;3.33;;;3.03;;
8060;SDS011;4073;42.626;25.386;2023-05-10T14:53:36;3.27;;;2.37;;
8060;SDS011;4073;42.626;25.386;2023-05-10T14:56:01;3.47;;;3.17;;
8060;SDS011;4073;42.626;25.386;2023-05-10T14:58:27;3.67;;;3.20;;
8060;SDS011;4073;42.626;25.386;2023-05-10T15:00:53;4.07;;;2.83;;
8060;SDS011;4073;42.626;25.386;2023-05-10T15:03:18;4.73;;;2.70;;
8060;SDS011;4073;42.626;25.386;2023-05-10T15:05:44;3.40;;;3.10;;
8060;SDS011;4073;42.626;25.386;2023-05-10T15:08:09;6.30;;;4.03;;
8060;SDS011;4073;42.626;25.386;2023-05-10T15:10:37;3.77;;;3.43;;
8060;SDS011;4073;42.626;25.386;2023-05-10T15:13:03;14.93;;;9.57;;
8060;SDS011;4073;42.626;25.386;2023-05-10T15:15:29;4.40;;;4.00;;
8060;SDS011;4073;42.626;25.386;2023-05-10T15:17:54;4.67;;;4.07;;
8060;SDS011;4073;42.626;25.386;2023-05-10T15:20:20;5.60;;;4.50;;
8060;SDS011;4073;42.626;25.386;2023-05-10T15:22:45;9.20;;;5.53;;
8060;SDS011;4073;42.626;25.386;2023-05-10T15:25:11;3.60;;;3.27;;
8060;SDS011;4073;42.626;25.386;2023-05-10T15:27:36;4.93;;;3.73;;
8060;SDS011;4073;42.626;25.386;2023-05-10T15:30:02;4.27;;;3.07;;
8060;SDS011;4073;42.626;25.386;2023-05-10T15:32:27;5.20;;;3.40;;
8060;SDS011;4073;42.626;25.386;2023-05-10T15:34:54;5.63;;;4.07;;
8060;SDS011;4073;42.626;25.386;2023-05-10T15:37:20;4.10;;;3.43;;